Time;durP1;ratioP1;P1;durP2;ratioP2;P2;SDS_P1;SDS_P2;PMS_P1;PMS_P2;Temp;Humidity;BMP_temperature;BMP_pressure;BME280_temperature;BME280_humidity;BME280_pressure;Samples;Min_cycle;Max_cycle;Signal;HPM_P1;HPM_P2
2021/04/09 00:01:56;;;;;;;5.83;5.07;;;;;;;-0.95;66.38;100327.75;4984667;28;20197;-80
2021/04/09 00:04:54;;;;;;;5.27;4.67;;;;;;;-0.91;66.14;100331.78;4985613;23;20216;-80
2021/04/09 00:08:40;;;;;;;5.13;4.60;;;;;;;-0.85;65.87;100334.84;5049840;28;20289;-81
2021/04/09 00:11:59;;;;;;;12.07;5.77;;;;;;;-0.87;65.62;100334.97;5050688;28;20233;-80
2021/04/09 00:15:27;;;;;;;6.80;4.90;;;;;;;-0.84;65.51;100326.81;5047145;28;20244;-80
2021/04/09 00:19:05;;;;;;;6.77;4.97;;;;;;;-0.93;65.09;100307.38;5051894;28;20201;-81
2021/04/09 00:22:10;;;;;;;6.43;5.10;;;;;;;-0.70;64.80;100331.75;5037576;28;20221;-82
2021/04/09 00:25:32;;;;;;;7.13;5.37;;;;;;;-0.71;64.72;100326.63;5048193;28;20232;-81
2021/04/09 00:28:47;;;;;;;7.10;5.13;;;;;;;-0.74;64.29;100324.25;5021063;28;20261;-80
2021/04/09 00:32:04;;;;;;;7.20;5.60;;;;;;;-0.82;64.46;100308.28;5037672;28;20231;-80
2021/04/09 00:35:14;;;;;;;6.83;5.23;;;;;;;-0.95;64.85;100305.88;5030554;28;20226;-82
2021/04/09 00:38:31;;;;;;;6.60;4.80;;;;;;;-0.93;64.78;100306.56;5048809;28;20234;-82
2021/04/09 00:42:10;;;;;;;6.80;5.30;;;;;;;-0.85;64.85;100319.06;5049873;28;20248;-80
2021/04/09 00:45:42;;;;;;;7.50;5.27;;;;;;;-0.96;65.35;100310.28;5036591;28;20226;-80
2021/04/09 00:49:13;;;;;;;6.57;5.53;;;;;;;-0.98;65.16;100325.34;5062805;23;20242;-79
2021/04/09 00:52:56;;;;;;;7.47;5.83;;;;;;;-0.97;65.33;100327.03;5001433;28;20314;-82
2021/04/09 00:56:23;;;;;;;8.17;5.27;;;;;;;-0.95;65.25;100308.50;5031510;28;20191;-83
2021/04/09 01:07:48;;;;;;;6.50;4.80;;;;;;;-1.01;65.48;100303.75;5031225;23;20288;-82
2021/04/09 01:10:56;;;;;;;7.93;5.17;;;;;;;-1.00;65.25;100289.63;4991747;28;20218;-83
2021/04/09 01:14:30;;;;;;;5.93;5.10;;;;;;;-0.96;65.26;100302.41;5016960;28;20238;-83
2021/04/09 01:17:30;;;;;;;5.67;5.03;;;;;;;-0.98;65.18;100290.34;5027733;28;20226;-83
2021/04/09 01:21:15;;;;;;;7.63;5.37;;;;;;;-1.01;65.51;100293.22;4977785;23;20223;-81
2021/04/09 01:24:34;;;;;;;5.97;4.80;;;;;;;-1.07;65.59;100293.72;5008491;28;20250;-83
2021/04/09 01:32:06;;;;;;;9.83;5.27;;;;;;;-1.22;66.22;100274.00;4994533;28;20219;-82
2021/04/09 01:35:19;;;;;;;6.07;5.07;;;;;;;-1.19;66.18;100281.63;4995683;23;20231;-82
2021/04/09 01:38:27;;;;;;;8.73;5.27;;;;;;;-1.21;65.98;100271.22;4994066;23;20230;-82
2021/04/09 01:41:48;;;;;;;6.40;5.00;;;;;;;-1.27;65.78;100255.16;4994930;28;20242;-81
2021/04/09 01:44:59;;;;;;;5.80;5.20;;;;;;;-1.24;65.95;100263.59;4988058;23;20231;-80
2021/04/09 01:48:15;;;;;;;8.30;5.20;;;;;;;-1.34;66.08;100239.06;5007636;28;20621;-82
2021/04/09 01:51:30;;;;;;;6.90;5.40;;;;;;;-1.22;66.05;100261.69;4996138;28;20229;-82
2021/04/09 01:54:55;;;;;;;7.03;5.10;;;;;;;-1.26;65.98;100252.38;5014351;28;20218;-82
2021/04/09 01:57:59;;;;;;;6.07;4.73;;;;;;;-1.30;66.33;100253.59;4973680;28;20231;-82
2021/04/09 02:01:40;;;;;;;8.33;5.40;;;;;;;-1.34;66.37;100257.44;5029439;28;20206;-83
2021/04/09 02:04:55;;;;;;;8.33;5.63;;;;;;;-1.51;66.19;100234.38;4973723;28;20254;-83
2021/04/09 02:08:29;;;;;;;7.63;5.80;;;;;;;-1.43;66.33;100242.44;5019075;28;20221;-82
2021/04/09 02:11:53;;;;;;;8.17;6.40;;;;;;;-1.44;66.54;100246.03;4983037;28;20333;-82
2021/04/09 02:15:35;;;;;;;7.17;5.80;;;;;;;-1.52;66.84;100237.97;5122178;23;20222;-81
2021/04/09 02:18:47;;;;;;;7.43;5.40;;;;;;;-1.57;67.02;100250.66;4999380;28;20547;-82
2021/04/09 02:22:26;;;;;;;8.33;5.97;;;;;;;-1.79;67.44;100225.31;5002161;23;20722;-81
2021/04/09 02:25:34;;;;;;;7.07;6.13;;;;;;;-1.89;67.87;100227.03;4994254;28;20177;-83
2021/04/09 02:28:43;;;;;;;8.67;6.70;;;;;;;-1.98;68.87;100223.38;4999358;23;20644;-83
2021/04/09 02:32:36;;;;;;;7.37;6.17;;;;;;;-2.04;69.38;100223.88;4987952;28;20212;-82
2021/04/09 02:35:53;;;;;;;9.53;6.23;;;;;;;-2.10;69.12;100224.34;4990797;28;20223;-81
2021/04/09 02:39:23;;;;;;;7.77;6.80;;;;;;;-2.24;69.45;100222.03;5078074;23;20378;-82
2021/04/09 02:42:41;;;;;;;7.90;7.10;;;;;;;-2.30;70.46;100217.28;5024905;28;20282;-82
2021/04/09 02:46:05;;;;;;;8.07;6.97;;;;;;;-2.41;70.46;100206.81;5031818;23;20238;-83
2021/04/09 02:49:24;;;;;;;10.77;8.07;;;;;;;-2.37;70.43;100214.31;5018171;28;20234;-81
2021/04/09 02:52:47;;;;;;;9.27;7.77;;;;;;;-2.39;70.78;100199.66;5032076;23;20257;-81
2021/04/09 02:55:58;;;;;;;10.10;7.73;;;;;;;-2.46;71.06;100198.47;4988619;28;20222;-82
2021/04/09 02:58:57;;;;;;;9.70;7.40;;;;;;;-2.47;71.30;100196.81;4977959;28;20231;-82
2021/04/09 03:02:07;;;;;;;10.40;7.13;;;;;;;-2.56;71.20;100185.25;5031415;28;20294;-83
2021/04/09 03:05:09;;;;;;;8.83;6.00;;;;;;;-2.58;70.90;100173.22;5010325;23;20246;-82
2021/04/09 03:08:28;;;;;;;8.53;5.43;;;;;;;-2.54;71.00;100187.75;4998961;28;20259;-82
2021/04/09 03:11:27;;;;;;;8.17;5.90;;;;;;;-2.59;71.31;100189.91;5013804;28;20239;-82
2021/04/09 03:14:38;;;;;;;6.97;6.00;;;;;;;-2.77;72.51;100173.84;4974415;28;20238;-82
2021/04/09 03:18:02;;;;;;;7.00;5.97;;;;;;;-2.91;72.46;100164.44;5005822;23;21318;-81
2021/04/09 03:20:57;;;;;;;8.73;6.30;;;;;;;-2.79;72.71;100200.19;4965753;28;20260;-81
2021/04/09 03:24:08;;;;;;;7.53;6.40;;;;;;;-2.84;73.63;100183.97;4960710;28;20236;-82
2021/04/09 03:27:00;;;;;;;8.80;6.23;;;;;;;-2.87;73.32;100188.63;4969410;29;20197;-81
2021/04/09 03:29:48;;;;;;;8.30;6.97;;;;;;;-2.90;74.14;100187.09;4959932;29;20217;-82
2021/04/09 03:33:05;;;;;;;9.13;6.20;;;;;;;-2.93;74.25;100181.25;4971486;29;20237;-82
2021/04/09 03:35:56;;;;;;;9.33;6.37;;;;;;;-3.01;74.43;100168.75;4967129;29;20228;-83
2021/04/09 03:39:00;;;;;;;8.70;6.43;;;;;;;-3.03;74.69;100169.84;4970910;29;20244;-81
2021/04/09 03:41:44;;;;;;;9.20;6.50;;;;;;;-3.12;74.89;100163.50;4926688;29;20333;-82
2021/04/09 03:44:33;;;;;;;7.83;6.73;;;;;;;-3.15;74.42;100161.97;4960865;28;20228;-82
2021/04/09 03:47:20;;;;;;;8.47;6.80;;;;;;;-3.16;74.52;100154.22;4991974;28;20274;-85
2021/04/09 03:50:14;;;;;;;9.37;6.50;;;;;;;-3.30;74.34;100144.81;4960312;28;20196;-84
2021/04/09 03:53:10;;;;;;;9.27;6.37;;;;;;;-3.25;75.19;100147.06;4990681;28;20625;-82
2021/04/09 03:56:03;;;;;;;7.80;6.00;;;;;;;-3.26;74.90;100148.00;4958908;28;20243;-83
2021/04/09 03:58:45;;;;;;;7.30;6.20;;;;;;;-3.26;75.33;100145.41;4957394;28;20251;-81
2021/04/09 04:01:52;;;;;;;8.43;6.20;;;;;;;-3.42;75.03;100116.94;4975841;28;20227;-90
2021/04/09 04:04:51;;;;;;;8.87;6.23;;;;;;;-3.32;75.71;100130.16;4956202;28;20224;-83
2021/04/09 04:07:44;;;;;;;8.93;6.10;;;;;;;-3.37;76.48;100121.84;4972948;28;20239;-87
2021/04/09 04:10:42;;;;;;;7.07;6.07;;;;;;;-3.41;76.76;100116.00;4944525;29;20225;-90
2021/04/09 04:13:31;;;;;;;9.00;6.27;;;;;;;-3.26;76.82;100134.91;4938959;29;20225;-91
2021/04/09 04:16:19;;;;;;;9.27;6.37;;;;;;;-3.29;77.02;100122.91;4949077;28;20236;-85
2021/04/09 04:19:20;;;;;;;8.87;5.83;;;;;;;-3.17;76.44;100127.16;4948603;28;20515;-93
2021/04/09 04:22:12;;;;;;;7.53;5.40;;;;;;;-3.11;75.35;100107.50;4939517;28;20228;-83
2021/04/09 04:25:13;;;;;;;6.60;5.23;;;;;;;-2.93;75.03;100115.69;4952711;29;20281;-82
2021/04/09 04:28:09;;;;;;;6.80;5.40;;;;;;;-2.87;75.00;100102.94;4938214;29;20227;-84
2021/04/09 04:31:10;;;;;;;6.80;5.10;;;;;;;-2.80;74.77;100096.22;4970427;29;20515;-82
2021/04/09 04:34:12;;;;;;;6.10;4.80;;;;;;;-2.55;73.38;100094.25;4958965;29;20248;-82
2021/04/09 04:37:02;;;;;;;48.33;23.87;;;;;;;-2.28;71.89;100115.59;4955724;29;20898;-81
2021/04/09 04:39:57;;;;;;;73.63;33.57;;;;;;;-2.22;70.84;100112.50;4970499;29;20225;-83
2021/04/09 04:42:56;;;;;;;28.53;15.07;;;;;;;-2.01;70.26;100118.59;4970638;29;20225;-82
2021/04/09 04:46:08;;;;;;;13.40;5.80;;;;;;;-1.76;68.21;100117.34;4932298;29;20226;-81
2021/04/09 04:49:33;;;;;;;6.07;3.87;;;;;;;-1.32;64.54;100113.59;4910116;29;20300;-83
2021/04/09 04:52:31;;;;;;;4.97;3.47;;;;;;;-1.07;63.71;100121.00;4919565;29;20657;-82
2021/04/09 04:55:30;;;;;;;5.13;3.47;;;;;;;-0.71;61.33;100095.91;4929955;29;20238;-82
2021/04/09 04:58:32;;;;;;;5.10;3.47;;;;;;;-0.35;60.22;100102.28;4927061;29;20553;-81
2021/04/09 05:01:32;;;;;;;5.63;3.50;;;;;;;-0.12;58.79;100102.84;4908988;29;20222;-82
2021/04/09 05:04:32;;;;;;;4.80;3.77;;;;;;;0.20;57.78;100108.59;4913073;29;20233;-81
2021/04/09 05:07:40;;;;;;;5.60;3.47;;;;;;;0.47;56.57;100102.56;4929272;29;20191;-83
2021/04/09 05:10:46;;;;;;;6.03;3.47;;;;;;;0.80;54.89;100102.03;4929394;29;20233;-83
2021/04/09 05:14:06;;;;;;;5.60;3.90;;;;;;;1.18;53.66;100105.44;4921725;29;20244;-81
2021/04/09 05:17:27;;;;;;;4.40;3.47;;;;;;;1.44;52.41;100092.38;4928829;29;20238;-82
2021/04/09 05:20:59;;;;;;;4.70;3.43;;;;;;;1.89;51.26;100106.31;4929623;29;20240;-79
2021/04/09 05:24:12;;;;;;;6.63;3.77;;;;;;;2.06;50.34;100091.41;4913318;29;20241;-78
2021/04/09 05:27:30;;;;;;;6.30;3.67;;;;;;;2.40;49.49;100081.75;4908742;29;20241;-80
2021/04/09 05:30:38;;;;;;;6.60;3.37;;;;;;;2.71;48.60;100086.56;4928869;29;20253;-79
2021/04/09 05:33:26;;;;;;;3.40;2.90;;;;;;;2.87;47.48;100079.50;4931229;29;20234;-81
2021/04/09 05:36:32;;;;;;;3.60;3.00;;;;;;;3.12;47.24;100083.06;4917706;29;20289;-80
2021/04/09 05:39:39;;;;;;;6.13;3.03;;;;;;;3.51;46.15;100093.91;4909711;29;20240;-80
2021/04/09 05:42:40;;;;;;;5.97;3.40;;;;;;;3.71;45.02;100091.78;4917251;29;20385;-79
2021/04/09 05:45:21;;;;;;;5.03;3.10;;;;;;;3.72;44.72;100062.47;4924384;29;20244;-79
2021/04/09 05:48:11;;;;;;;3.50;3.10;;;;;;;4.08;44.06;100083.34;4928511;29;20238;-80
2021/04/09 05:51:01;;;;;;;4.87;3.40;;;;;;;4.20;43.79;100085.47;4914958;29;20225;-81
2021/04/09 05:54:10;;;;;;;4.83;3.67;;;;;;;4.29;43.12;100075.72;4905528;29;20242;-80
2021/04/09 05:57:07;;;;;;;3.93;3.03;;;;;;;4.62;42.46;100068.50;4932252;29;20230;-80
2021/04/09 05:59:57;;;;;;;6.70;3.40;;;;;;;4.82;41.93;100075.03;4907844;29;20281;-80
2021/04/09 06:02:45;;;;;;;10.47;3.43;;;;;;;4.99;41.39;100071.34;4907604;29;20234;-80
2021/04/09 06:05:28;;;;;;;5.83;4.10;;;;;;;5.00;41.32;100069.50;4912863;29;20246;-80
2021/04/09 06:08:12;;;;;;;4.53;3.17;;;;;;;5.11;41.03;100061.97;4925982;29;20312;-81
2021/04/09 06:11:10;;;;;;;3.30;2.83;;;;;;;5.24;40.68;100048.94;4905245;29;20226;-80
2021/04/09 06:14:29;;;;;;;3.33;2.80;;;;;;;5.53;39.91;100058.06;4888604;29;20310;-80
2021/04/09 06:17:24;;;;;;;4.40;3.00;;;;;;;5.64;39.27;100047.88;4895772;29;20241;-80
2021/04/09 06:20:26;;;;;;;5.50;3.50;;;;;;;5.74;39.07;100047.59;4899645;29;20757;-80
2021/04/09 06:23:08;;;;;;;5.77;3.40;;;;;;;5.92;38.74;100036.69;4911251;29;20253;-80
2021/04/09 06:25:58;;;;;;;4.07;2.80;;;;;;;6.18;38.32;100053.91;4920482;29;20229;-80
2021/04/09 06:29:04;;;;;;;5.37;3.30;;;;;;;6.20;37.67;100029.78;4926519;29;20222;-83
2021/04/09 06:32:02;;;;;;;4.77;2.83;;;;;;;6.56;37.51;100043.19;4916875;29;20230;-83
2021/04/09 06:34:57;;;;;;;7.27;3.60;;;;;;;6.69;37.64;100046.03;4911389;29;20215;-81
2021/04/09 06:37:48;;;;;;;5.07;3.40;;;;;;;6.82;37.09;100034.72;4911916;29;20240;-83
2021/04/09 06:40:40;;;;;;;4.40;3.07;;;;;;;7.01;35.90;100039.47;4936712;28;20243;-83
2021/04/09 06:43:35;;;;;;;4.73;3.20;;;;;;;7.21;35.88;100040.53;4958437;28;20236;-83
2021/04/09 06:46:40;;;;;;;5.17;3.17;;;;;;;7.21;35.69;100026.38;4954780;29;20236;-83
2021/04/09 06:49:41;;;;;;;6.37;3.07;;;;;;;7.23;35.56;100011.06;4976225;28;20224;-84
2021/04/09 06:53:08;;;;;;;5.03;3.37;;;;;;;7.39;34.67;100013.47;4972278;28;20235;-84
2021/04/09 06:56:41;;;;;;;7.77;6.00;;;;;;;7.70;35.08;100029.97;5011498;28;20224;-84
2021/04/09 06:59:16;;;;;;;3.43;3.03;;;;;;;7.75;33.98;100016.88;4993794;28;20236;-84
2021/04/09 07:01:55;;;;;;;3.53;2.77;;;;;;;7.90;32.21;100020.28;4967761;28;20228;-84
2021/04/09 07:04:45;;;;;;;5.30;3.03;;;;;;;7.90;31.74;100006.13;4986826;28;20236;-87
2021/04/09 07:07:20;;;;;;;3.83;2.67;;;;;;;8.05;32.12;99990.84;4975757;28;20231;-83
2021/04/09 07:09:49;;;;;;;4.23;3.13;;;;;;;8.30;31.72;100010.78;5009678;28;20231;-83
2021/04/09 07:12:29;;;;;;;4.90;2.87;;;;;;;8.62;31.36;100025.34;4981171;28;20254;-84
2021/04/09 07:15:06;;;;;;;19.60;13.90;;;;;;;8.53;31.41;99991.81;4953306;29;20236;-84
2021/04/09 07:18:09;;;;;;;5.07;2.90;;;;;;;8.73;30.96;100013.25;4988606;28;20286;-84
2021/04/09 07:20:55;;;;;;;4.23;3.17;;;;;;;8.88;30.52;100007.78;4974066;28;20252;-84
2021/04/09 07:23:51;;;;;;;4.27;3.13;;;;;;;8.90;30.85;99990.53;4960691;29;20340;-84
2021/04/09 07:27:07;;;;;;;4.50;2.90;;;;;;;9.14;30.69;100014.06;4938839;29;20249;-84
2021/04/09 07:30:31;;;;;;;3.63;2.70;;;;;;;9.27;30.30;99997.22;4958992;29;20290;-84
2021/04/09 07:33:14;;;;;;;3.80;3.27;;;;;;;9.57;29.54;100011.06;4965281;29;20232;-84
2021/04/09 07:36:23;;;;;;;3.57;2.87;;;;;;;9.68;29.75;100007.78;4970435;29;20252;-84
2021/04/09 07:39:57;;;;;;;3.20;2.90;;;;;;;9.77;29.07;100013.75;4961630;28;20224;-84
2021/04/09 07:42:46;;;;;;;3.30;2.80;;;;;;;9.69;29.09;99985.38;4988195;28;20228;-84
2021/04/09 07:46:06;;;;;;;3.87;2.70;;;;;;;9.79;28.90;99977.75;4960287;29;20320;-84
2021/04/09 07:49:05;;;;;;;3.57;2.97;;;;;;;10.02;29.22;99975.47;4960940;28;20228;-84
2021/04/09 07:52:12;;;;;;;5.20;3.20;;;;;;;10.29;28.21;100015.63;4975983;28;20295;-84
2021/04/09 07:55:11;;;;;;;3.50;3.03;;;;;;;10.28;28.23;99976.47;4960334;28;20228;-84
2021/04/09 07:58:14;;;;;;;4.27;3.07;;;;;;;10.46;28.70;99971.28;4990644;28;20243;-84
2021/04/09 08:01:35;;;;;;;4.73;3.10;;;;;;;10.58;27.34;99967.75;4982707;28;20240;-84
2021/04/09 08:04:36;;;;;;;4.30;3.00;;;;;;;10.82;27.49;99985.00;4973134;29;20524;-84
2021/04/09 08:07:41;;;;;;;3.50;2.67;;;;;;;10.85;27.34;99976.53;4974088;28;20248;-84
2021/04/09 08:10:40;;;;;;;4.13;2.87;;;;;;;11.03;27.24;99981.16;4966903;28;20295;-84
2021/04/09 08:13:16;;;;;;;5.33;3.43;;;;;;;11.04;26.89;99948.78;4991257;28;20231;-84
2021/04/09 08:19:28;;;;;;;3.60;2.97;;;;;;;11.37;26.73;99950.44;4930221;28;20232;-84
2021/04/09 08:23:10;;;;;;;4.43;3.20;;;;;;;11.67;26.23;99982.81;4992711;28;20246;-84
2021/04/09 08:25:55;;;;;;;4.43;3.20;;;;;;;11.66;26.46;99957.06;4995494;28;20223;-84
2021/04/09 08:28:34;;;;;;;4.17;3.33;;;;;;;11.80;26.54;99964.78;4990376;28;20224;-83
2021/04/09 08:31:14;;;;;;;4.93;3.17;;;;;;;11.79;26.48;99946.22;4960584;29;20232;-83
2021/04/09 08:34:01;;;;;;;5.97;3.40;;;;;;;12.04;26.29;99952.38;4960831;28;20223;-83
2021/04/09 08:36:35;;;;;;;4.07;2.83;;;;;;;12.04;25.96;99965.03;4951281;28;20224;-82
2021/04/09 08:39:14;;;;;;;5.10;3.30;;;;;;;12.14;25.36;99958.09;4952483;28;20529;-82
2021/04/09 08:41:49;;;;;;;3.60;3.30;;;;;;;12.24;25.03;99955.72;4967092;28;20661;-83
2021/04/09 08:44:23;;;;;;;5.80;3.40;;;;;;;12.28;25.09;99956.06;4954662;28;20298;-82
2021/04/09 08:46:55;;;;;;;3.33;3.03;;;;;;;12.48;25.24;99958.56;4957172;29;20279;-82
2021/04/09 08:49:33;;;;;;;3.50;2.93;;;;;;;12.57;25.53;99960.72;4967562;28;20258;-82
2021/04/09 08:52:14;;;;;;;4.40;3.30;;;;;;;12.82;25.32;99949.88;4951922;28;20230;-82
2021/04/09 08:55:05;;;;;;;3.80;2.97;;;;;;;13.07;24.45;99960.50;4953729;28;20251;-82
2021/04/09 08:57:35;;;;;;;4.57;3.30;;;;;;;13.26;24.80;99951.38;4950248;28;20240;-83
2021/04/09 09:00:17;;;;;;;4.87;3.53;;;;;;;13.48;24.63;99962.47;4957727;28;20231;-82
2021/04/09 09:02:59;;;;;;;3.43;2.80;;;;;;;13.63;24.08;99954.75;4971094;28;20665;-82
2021/04/09 09:05:56;;;;;;;4.27;3.20;;;;;;;13.71;23.85;99957.13;4953974;28;20224;-82
2021/04/09 09:08:45;;;;;;;4.40;3.30;;;;;;;13.87;22.94;99953.72;4936928;28;20235;-83
2021/04/09 09:11:49;;;;;;;4.37;3.33;;;;;;;14.02;22.83;99951.41;4951086;28;20227;-82
2021/04/09 09:14:35;;;;;;;3.87;3.17;;;;;;;14.20;23.90;99947.75;4951772;28;20251;-82
2021/04/09 09:17:21;;;;;;;6.40;3.67;;;;;;;14.29;22.87;99948.22;4950373;28;20247;-82
2021/04/09 09:19:50;;;;;;;5.67;3.33;;;;;;;14.22;23.41;99952.91;4965388;28;20230;-83
2021/04/09 09:22:21;;;;;;;7.47;4.30;;;;;;;14.34;23.52;99943.75;4932883;28;20287;-83
2021/04/09 09:25:05;;;;;;;5.17;3.90;;;;;;;14.45;22.39;99939.44;4929746;28;20554;-83
2021/04/09 09:27:52;;;;;;;6.13;5.03;;;;;;;14.67;23.25;99939.63;4943473;28;20228;-84
2021/04/09 09:30:32;;;;;;;8.13;6.17;;;;;;;14.49;23.96;99936.03;4939582;29;20229;-84
2021/04/09 09:33:22;;;;;;;4.57;3.70;;;;;;;14.54;24.04;99928.06;4954657;28;20236;-84
2021/04/09 09:36:10;;;;;;;6.57;3.27;;;;;;;14.51;23.42;99914.25;4960514;28;20497;-83
2021/04/09 09:38:51;;;;;;;6.37;3.37;;;;;;;14.60;23.07;99926.28;4943759;28;20663;-84
2021/04/09 09:41:37;;;;;;;5.90;3.50;;;;;;;14.61;23.02;99921.69;4942296;28;20505;-85
2021/04/09 09:44:43;;;;;;;6.37;4.03;;;;;;;14.68;24.23;99914.31;4972734;28;20226;-83
2021/04/09 09:47:22;;;;;;;5.33;3.30;;;;;;;14.75;22.96;99909.56;4912511;29;20227;-84
2021/04/09 09:50:10;;;;;;;6.27;3.93;;;;;;;14.77;22.67;99902.06;4912380;29;20230;-86
2021/04/09 09:53:04;;;;;;;5.13;3.43;;;;;;;14.91;22.62;99912.34;4944628;28;20218;-83
2021/04/09 09:55:50;;;;;;;5.53;3.33;;;;;;;14.99;21.69;99897.63;4941312;28;20713;-86
2021/04/09 09:58:28;;;;;;;4.30;3.53;;;;;;;14.78;22.25;99887.53;4956761;28;20300;-83
2021/04/09 10:01:07;;;;;;;3.40;3.10;;;;;;;14.92;22.80;99884.31;4943561;28;20219;-83
2021/04/09 10:03:41;;;;;;;4.20;3.50;;;;;;;14.95;22.76;99878.44;4958137;28;20218;-83
2021/04/09 10:06:14;;;;;;;4.13;3.30;;;;;;;14.98;22.47;99885.19;4938890;28;20330;-83
2021/04/09 10:09:03;;;;;;;5.23;3.40;;;;;;;15.11;22.51;99879.53;4957325;28;20226;-83
2021/04/09 10:11:55;;;;;;;3.90;3.50;;;;;;;15.23;21.31;99880.28;4933812;28;20568;-86
2021/04/09 10:14:49;;;;;;;5.33;3.43;;;;;;;15.29;20.82;99867.69;4957353;28;20229;-83
2021/04/09 10:17:35;;;;;;;5.53;3.50;;;;;;;15.32;21.80;99868.00;4929417;28;20238;-84
2021/04/09 10:20:33;;;;;;;4.80;3.50;;;;;;;15.49;21.79;99881.50;4942842;28;20222;-83
2021/04/09 10:23:27;;;;;;;5.57;3.47;;;;;;;15.49;21.31;99854.50;4958197;28;20301;-86
2021/04/09 10:26:05;;;;;;;3.67;3.37;;;;;;;15.69;21.30;99862.13;4957800;28;20222;-85
2021/04/09 10:28:55;;;;;;;4.67;3.50;;;;;;;15.80;20.42;99866.63;4960010;28;20227;-84
2021/04/09 10:31:37;;;;;;;4.00;3.60;;;;;;;15.79;21.34;99857.72;4954345;29;20329;-83
2021/04/09 10:34:34;;;;;;;4.90;3.50;;;;;;;15.96;21.79;99854.19;4947277;28;20218;-84
2021/04/09 10:37:32;;;;;;;4.20;3.50;;;;;;;16.09;21.57;99854.63;4938487;29;20727;-84
2021/04/09 10:40:20;;;;;;;4.50;3.47;;;;;;;16.17;21.21;99848.78;4943225;28;20218;-84
2021/04/09 10:43:03;;;;;;;4.37;3.60;;;;;;;16.21;21.93;99849.91;4957817;28;20638;-85
2021/04/09 10:45:40;;;;;;;5.30;4.20;;;;;;;16.38;21.04;99841.72;4945701;28;20287;-84
2021/04/09 10:48:23;;;;;;;5.23;4.47;;;;;;;16.45;20.64;99839.66;4946824;28;20230;-83
2021/04/09 10:51:07;;;;;;;6.87;3.97;;;;;;;16.43;20.85;99835.56;4945106;28;20226;-82
2021/04/09 10:53:51;;;;;;;4.37;3.97;;;;;;;16.56;21.02;99817.06;4944758;28;20246;-83
2021/04/09 10:56:39;;;;;;;5.90;3.80;;;;;;;16.68;20.80;99827.78;4945391;28;20316;-84
2021/04/09 10:59:25;;;;;;;4.30;3.90;;;;;;;16.82;20.84;99828.19;4947344;28;20273;-84
2021/04/09 11:02:05;;;;;;;4.70;3.90;;;;;;;16.92;20.36;99829.13;4960322;28;20232;-83
2021/04/09 11:05:01;;;;;;;5.33;4.00;;;;;;;17.06;20.69;99810.56;4962970;28;20685;-82
2021/04/09 11:07:47;;;;;;;6.03;4.13;;;;;;;17.21;21.03;99823.41;4961329;28;20306;-83
2021/04/09 11:10:42;;;;;;;5.60;3.60;;;;;;;17.38;20.74;99807.84;4962483;28;20231;-82
2021/04/09 11:13:34;;;;;;;5.17;3.97;;;;;;;17.44;20.03;99820.34;4945101;28;20225;-84
2021/04/09 11:16:08;;;;;;;4.60;4.00;;;;;;;17.47;20.19;99806.28;4944864;28;20305;-84
2021/04/09 11:18:51;;;;;;;4.63;4.13;;;;;;;17.67;20.11;99811.88;4946473;28;20306;-84
2021/04/09 11:21:43;;;;;;;6.27;4.27;;;;;;;17.65;19.10;99807.78;4957948;28;20231;-85
2021/04/09 11:24:18;;;;;;;5.97;4.30;;;;;;;17.63;20.13;99802.63;4944442;28;20228;-83
2021/04/09 11:26:52;;;;;;;5.83;4.17;;;;;;;17.68;20.26;99799.97;4944949;28;20231;-83
2021/04/09 11:29:31;;;;;;;6.23;4.67;;;;;;;17.87;19.94;99786.78;4943335;28;20238;-84
2021/04/09 11:32:12;;;;;;;5.33;4.40;;;;;;;18.06;19.53;99785.22;4927042;28;20219;-83
2021/04/09 11:34:44;;;;;;;24.97;22.63;;;;;;;18.28;19.12;99788.59;4926397;28;20227;-85
2021/04/09 11:37:20;;;;;;;22.37;19.83;;;;;;;18.31;20.40;99787.22;4929657;28;20235;-84
2021/04/09 11:39:56;;;;;;;11.90;9.13;;;;;;;18.55;19.32;99782.19;4944321;28;20215;-84
2021/04/09 11:42:34;;;;;;;15.73;14.17;;;;;;;18.68;18.55;99784.38;4958269;28;20232;-84
2021/04/09 11:45:14;;;;;;;8.60;5.00;;;;;;;18.72;18.48;99771.91;4944334;28;20527;-83
2021/04/09 11:47:45;;;;;;;8.13;4.70;;;;;;;18.65;18.35;99776.78;4959796;28;20653;-84
2021/04/09 11:50:30;;;;;;;8.17;4.70;;;;;;;18.33;18.81;99758.78;4943688;28;20228;-83
2021/04/09 11:53:12;;;;;;;4.90;4.03;;;;;;;18.63;19.90;99763.47;4945594;28;20601;-83
2021/04/09 11:55:51;;;;;;;6.37;4.57;;;;;;;18.59;18.90;99769.72;4957650;28;20220;-84
2021/04/09 11:58:31;;;;;;;5.33;4.70;;;;;;;18.51;18.46;99760.19;4941802;28;20311;-85
2021/04/09 12:01:19;;;;;;;4.77;4.33;;;;;;;18.65;18.82;99755.91;4943081;28;20226;-84
2021/04/09 12:04:05;;;;;;;12.27;9.53;;;;;;;18.76;18.46;99762.13;4960304;28;20654;-84
2021/04/09 12:06:49;;;;;;;8.87;7.17;;;;;;;18.46;18.81;99755.56;4944848;28;20228;-85
2021/04/09 12:09:32;;;;;;;77.03;62.67;;;;;;;18.49;18.70;99743.34;4943326;28;20678;-84
2021/04/09 12:12:13;;;;;;;7.57;6.27;;;;;;;18.39;18.69;99741.41;4943793;28;20224;-85
2021/04/09 12:14:54;;;;;;;18.13;16.33;;;;;;;18.41;18.50;99746.59;4928559;28;20658;-84
2021/04/09 12:17:35;;;;;;;7.53;5.50;;;;;;;18.28;19.19;99734.34;4943470;28;20258;-83
2021/04/09 12:20:27;;;;;;;7.23;6.50;;;;;;;18.45;18.85;99717.84;4932457;28;20356;-84
2021/04/09 12:23:11;;;;;;;5.87;4.77;;;;;;;18.53;18.34;99714.63;4945029;28;20307;-83
2021/04/09 12:26:01;;;;;;;5.77;4.60;;;;;;;18.66;19.61;99733.09;4932747;28;20219;-84
2021/04/09 12:28:45;;;;;;;6.47;5.10;;;;;;;18.76;18.58;99713.28;4942338;28;20221;-83
2021/04/09 12:31:19;;;;;;;5.97;5.07;;;;;;;18.88;18.25;99719.25;4959817;28;20220;-83
2021/04/09 12:33:52;;;;;;;6.10;5.40;;;;;;;18.96;18.54;99712.47;4956972;28;20212;-84
2021/04/09 12:36:23;;;;;;;11.00;8.93;;;;;;;19.03;18.38;99694.00;4975914;28;20530;-84
2021/04/09 12:38:58;;;;;;;8.23;7.43;;;;;;;18.99;18.25;99693.72;4944016;28;20239;-84
2021/04/09 12:41:30;;;;;;;39.90;33.43;;;;;;;18.99;18.14;99690.22;4939640;28;20228;-84
2021/04/09 12:44:04;;;;;;;22.37;20.13;;;;;;;18.97;18.61;99689.66;4958140;28;20224;-84
2021/04/09 12:46:38;;;;;;;23.10;20.70;;;;;;;18.94;17.98;99674.75;4943679;28;20224;-84
2021/04/09 12:49:15;;;;;;;8.53;7.67;;;;;;;18.98;18.19;99666.88;4956887;28;20230;-83
2021/04/09 12:51:55;;;;;;;7.37;5.90;;;;;;;19.06;18.15;99671.72;4959287;28;20311;-84
2021/04/09 12:54:41;;;;;;;5.63;4.80;;;;;;;18.96;18.20;99658.16;4958528;28;20231;-84
2021/04/09 12:57:19;;;;;;;5.33;4.77;;;;;;;19.02;18.07;99659.78;4943042;28;20310;-86
2021/04/09 12:59:51;;;;;;;5.80;5.20;;;;;;;19.19;18.04;99650.25;4941339;28;20644;-84
2021/04/09 13:02:36;;;;;;;7.17;5.00;;;;;;;19.31;17.88;99655.41;4946149;28;20684;-83
2021/04/09 13:05:10;;;;;;;6.10;5.20;;;;;;;19.39;18.22;99635.81;4943682;28;20227;-84
2021/04/09 13:07:42;;;;;;;5.43;4.93;;;;;;;19.28;17.50;99621.44;4958323;28;20282;-84
2021/04/09 13:10:26;;;;;;;5.30;4.80;;;;;;;19.57;18.00;99613.47;4946377;28;20543;-85
2021/04/09 13:12:59;;;;;;;5.70;5.13;;;;;;;19.64;18.05;99613.19;4943465;28;20228;-84
2021/04/09 13:15:36;;;;;;;8.73;4.90;;;;;;;19.63;18.06;99603.41;4957053;28;20524;-84
2021/04/09 13:18:21;;;;;;;5.50;4.93;;;;;;;19.71;17.92;99614.50;4940501;28;20247;-83
2021/04/09 13:21:09;;;;;;;7.43;4.73;;;;;;;19.73;18.25;99608.78;4944750;28;20227;-84
2021/04/09 13:24:02;;;;;;;13.07;4.90;;;;;;;19.90;18.31;99594.81;4943755;28;20683;-84
2021/04/09 13:26:42;;;;;;;5.70;4.40;;;;;;;19.97;17.63;99592.63;4956528;28;20275;-84
2021/04/09 13:29:18;;;;;;;6.40;4.60;;;;;;;20.09;16.96;99591.16;4955747;28;20313;-83
2021/04/09 13:31:57;;;;;;;5.67;3.87;;;;;;;20.06;17.43;99580.84;4934625;28;20303;-85
2021/04/09 13:34:36;;;;;;;5.97;4.40;;;;;;;20.23;17.62;99586.72;4945696;28;20243;-84
2021/04/09 13:37:12;;;;;;;5.97;4.57;;;;;;;20.32;16.67;99567.91;4942291;28;20231;-85
2021/04/09 13:39:58;;;;;;;7.90;4.70;;;;;;;20.45;16.10;99569.16;4942753;28;20224;-83
2021/04/09 13:42:37;;;;;;;5.40;4.50;;;;;;;20.55;15.66;99577.22;4957251;28;20220;-83
2021/04/09 13:45:19;;;;;;;5.10;3.90;;;;;;;21.00;15.80;99567.78;4971644;28;20278;-83
2021/04/09 13:48:02;;;;;;;5.83;3.90;;;;;;;21.29;16.00;99568.56;4956972;28;20317;-84
2021/04/09 13:50:47;;;;;;;6.27;4.40;;;;;;;21.43;15.12;99555.84;4939709;28;20535;-83
2021/04/09 13:53:28;;;;;;;5.53;3.77;;;;;;;21.47;15.18;99559.59;4943012;28;20228;-84
2021/04/09 13:56:11;;;;;;;4.60;4.20;;;;;;;21.18;15.59;99539.84;4943321;28;20228;-84
2021/04/09 13:58:55;;;;;;;7.33;4.77;;;;;;;21.32;15.75;99564.47;4959573;28;20233;-85